createdAt,value
2023-02-23T00:02:07.998Z,41.50
2023-02-23T00:04:35.568Z,33.22
2023-02-23T00:07:05.422Z,37.03
2023-02-23T00:09:45.608Z,38.50
2023-02-23T00:12:23.945Z,28.05
2023-02-23T00:15:00.252Z,37.90
2023-02-23T00:17:31.527Z,33.15
2023-02-23T00:20:06.037Z,36.03
2023-02-23T00:22:37.991Z,34.35
2023-02-23T00:25:09.024Z,32.90
2023-02-23T00:27:44.476Z,29.77
2023-02-23T00:30:15.659Z,24.35
2023-02-23T00:32:42.112Z,38.00
2023-02-23T00:35:19.050Z,24.63
2023-02-23T00:37:49.622Z,32.80
2023-02-23T00:40:24.630Z,28.42
2023-02-23T00:42:52.461Z,23.42
2023-02-23T00:45:20.279Z,32.35
2023-02-23T00:47:48.737Z,27.92
2023-02-23T00:50:23.198Z,34.45
2023-02-23T00:52:52.278Z,33.08
2023-02-23T00:55:18.988Z,42.33
2023-02-23T00:57:45.878Z,29.85
2023-02-23T01:00:25.633Z,31.08
2023-02-23T01:02:52.215Z,31.80
2023-02-23T01:05:18.688Z,30.77
2023-02-23T01:08:06.840Z,29.08
2023-02-23T01:10:33.232Z,39.97
2023-02-23T01:12:59.985Z,39.10
2023-02-23T01:15:39.852Z,44.38
2023-02-23T01:18:14.641Z,43.28
2023-02-23T01:20:44.237Z,28.10
2023-02-23T01:23:14.829Z,45.70
2023-02-23T01:25:43.128Z,41.45
2023-02-23T01:28:18.474Z,29.77
2023-02-23T01:30:45.048Z,30.30
2023-02-23T01:33:14.034Z,32.42
2023-02-23T01:35:40.644Z,36.70
2023-02-23T01:38:07.503Z,32.47
2023-02-23T01:40:39.373Z,39.17
2023-02-23T01:43:15.361Z,32.10
2023-02-23T01:45:47.306Z,25.27
2023-02-23T01:48:18.058Z,39.75
2023-02-23T01:50:56.198Z,40.60
2023-02-23T01:53:25.367Z,39.22
2023-02-23T01:55:56.634Z,41.40
2023-02-23T01:58:29.133Z,33.25
2023-02-23T02:00:57.772Z,27.65
2023-02-23T02:03:34.821Z,40.53
2023-02-23T02:06:03.130Z,35.63
2023-02-23T02:08:32.277Z,44.25
2023-02-23T02:11:08.491Z,37.03
2023-02-23T02:13:38.227Z,28.83
2023-02-23T02:16:28.254Z,33.53
2023-02-23T02:19:12.047Z,46.08
2023-02-23T02:22:38.977Z,42.03
2023-02-23T02:25:12.005Z,26.00
2023-02-23T02:28:00.031Z,34.00
2023-02-23T02:30:35.514Z,45.75
2023-02-23T02:33:09.429Z,35.20
2023-02-23T02:35:53.805Z,46.88
2023-02-23T02:38:53.385Z,41.85
2023-02-23T02:41:37.122Z,47.20
2023-02-23T02:44:15.265Z,42.65
2023-02-23T02:46:57.479Z,46.58
2023-02-23T02:49:36.758Z,43.00
2023-02-23T02:52:06.943Z,35.78
2023-02-23T02:54:41.949Z,46.75
2023-02-23T02:57:13.852Z,46.25
2023-02-23T03:00:04.019Z,51.95
2023-02-23T03:02:51.402Z,32.28
2023-02-23T03:05:38.786Z,50.67
2023-02-23T03:08:31.913Z,48.70
2023-02-23T03:11:29.210Z,51.65
2023-02-23T03:14:40.753Z,45.72
2023-02-23T03:17:43.397Z,47.53
2023-02-23T03:20:50.660Z,42.55
2023-02-23T03:24:11.320Z,41.92
2023-02-23T03:27:05.009Z,47.03
2023-02-23T03:30:05.830Z,45.72
2023-02-23T03:33:06.062Z,46.53
2023-02-23T03:36:14.539Z,39.25
2023-02-23T03:39:02.569Z,58.38
2023-02-23T03:41:49.934Z,41.40
2023-02-23T03:44:51.833Z,50.42
2023-02-23T03:47:42.867Z,59.95
2023-02-23T03:50:41.531Z,56.95
2023-02-23T03:53:29.234Z,41.97
2023-02-23T03:56:19.231Z,46.70
2023-02-23T03:59:08.965Z,44.75
2023-02-23T04:02:07.646Z,40.95
2023-02-23T04:04:54.754Z,42.30
2023-02-23T04:07:40.122Z,41.92
2023-02-23T04:10:27.998Z,52.45
2023-02-23T04:13:15.294Z,56.33
2023-02-23T04:16:01.099Z,34.45
2023-02-23T04:18:30.914Z,45.72
2023-02-23T04:20:59.006Z,52.22
2023-02-23T04:23:26.627Z,48.63
2023-02-23T04:25:53.702Z,43.40
2023-02-23T04:28:21.134Z,42.65
2023-02-23T04:30:53.058Z,42.40
2023-02-23T04:33:22.060Z,60.88
2023-02-23T04:35:48.752Z,48.40
2023-02-23T04:38:15.221Z,49.60
2023-02-23T04:40:41.666Z,46.30
2023-02-23T04:43:09.382Z,43.45
2023-02-23T04:45:35.750Z,46.70
2023-02-23T04:48:02.295Z,50.67
2023-02-23T04:50:29.324Z,48.17
2023-02-23T04:52:56.809Z,41.70
2023-02-23T04:55:24.884Z,53.03
2023-02-23T04:57:52.802Z,53.58
2023-02-23T05:00:19.598Z,53.70
2023-02-23T05:02:46.093Z,47.53
2023-02-23T05:05:13.026Z,61.70
2023-02-23T05:07:39.506Z,52.80
2023-02-23T05:10:06.898Z,51.88
2023-02-23T05:12:33.612Z,46.88
2023-02-23T05:15:03.122Z,47.22
2023-02-23T05:17:31.645Z,51.03
2023-02-23T05:19:58.037Z,47.00
2023-02-23T05:22:24.469Z,47.25
2023-02-23T05:24:50.831Z,53.53
2023-02-23T05:27:17.932Z,48.83
2023-02-23T05:29:44.976Z,48.90
2023-02-23T05:32:11.559Z,56.17
2023-02-23T05:34:39.169Z,52.78
2023-02-23T05:37:06.125Z,43.13
2023-02-23T05:39:35.665Z,48.55
2023-02-23T05:42:02.039Z,53.38
2023-02-23T05:44:31.305Z,48.72
2023-02-23T05:46:57.843Z,47.63
2023-02-23T05:49:24.449Z,53.33
2023-02-23T05:51:51.541Z,50.08
2023-02-23T05:54:22.793Z,51.22
2023-02-23T05:56:49.310Z,45.88
2023-02-23T05:59:17.369Z,38.83
2023-02-23T06:01:43.780Z,48.25
2023-02-23T06:04:10.215Z,50.00
2023-02-23T06:06:36.705Z,49.65
2023-02-23T06:09:03.629Z,48.58
2023-02-23T06:11:30.645Z,41.17
2023-02-23T06:14:00.439Z,48.78
2023-02-23T06:16:27.961Z,35.33
2023-02-23T06:18:57.012Z,36.78
2023-02-23T06:21:25.121Z,38.45
2023-02-23T06:23:52.407Z,38.45
2023-02-23T06:26:18.883Z,36.80
2023-02-23T06:28:45.329Z,40.95
2023-02-23T06:31:14.856Z,43.42
2023-02-23T06:33:41.316Z,38.22
2023-02-23T06:36:08.020Z,44.95
2023-02-23T06:38:34.495Z,39.38
2023-02-23T06:41:06.345Z,38.60
2023-02-23T06:43:35.006Z,39.45
2023-02-23T06:46:01.582Z,37.63
2023-02-23T06:48:30.449Z,42.97
2023-02-23T06:51:01.108Z,37.58
2023-02-23T06:53:27.718Z,42.90
2023-02-23T06:55:54.302Z,38.03
2023-02-23T06:58:20.951Z,36.47
2023-02-23T07:00:47.411Z,30.33
2023-02-23T07:03:13.865Z,34.33
2023-02-23T07:05:44.973Z,37.30
2023-02-23T07:08:11.450Z,34.85
2023-02-23T07:10:37.868Z,28.75
2023-02-23T07:13:04.332Z,45.97
2023-02-23T07:15:30.862Z,44.78
2023-02-23T07:18:00.480Z,44.65
2023-02-23T07:20:29.410Z,43.75
2023-02-23T07:22:56.013Z,32.72
2023-02-23T07:25:22.625Z,43.63
2023-02-23T07:27:49.178Z,57.08
2023-02-23T07:30:15.804Z,40.75
2023-02-23T07:32:42.187Z,49.53
2023-02-23T07:35:09.170Z,49.97
2023-02-23T07:37:35.556Z,39.08
2023-02-23T07:40:02.827Z,48.08
2023-02-23T07:42:29.664Z,45.78
2023-02-23T07:44:56.112Z,39.83
2023-02-23T07:47:30.206Z,48.53
2023-02-23T07:50:03.443Z,45.92
2023-02-23T07:52:29.810Z,52.53
2023-02-23T07:54:58.421Z,45.95
2023-02-23T07:57:25.195Z,46.40
2023-02-23T07:59:51.905Z,49.15
2023-02-23T08:02:18.651Z,43.22
2023-02-23T08:04:45.211Z,43.22
2023-02-23T08:07:16.223Z,41.42
2023-02-23T08:09:42.673Z,41.45
2023-02-23T08:12:10.434Z,45.83
2023-02-23T08:14:36.985Z,38.40
2023-02-23T08:17:03.555Z,43.88
2023-02-23T08:19:30.709Z,38.10
2023-02-23T08:21:57.614Z,32.53
2023-02-23T08:24:27.041Z,39.78
2023-02-23T08:26:59.243Z,37.85
2023-02-23T08:31:52.312Z,42.00
2023-02-23T08:34:20.454Z,37.22
2023-02-23T08:36:46.865Z,35.40
2023-02-23T08:39:14.535Z,33.17
2023-02-23T08:41:41.550Z,35.38
2023-02-23T08:44:08.203Z,31.90
2023-02-23T08:46:34.797Z,28.88
2023-02-23T08:49:01.380Z,33.53
2023-02-23T08:51:27.735Z,32.13
2023-02-23T08:53:57.131Z,28.00
2023-02-23T08:56:25.268Z,35.55
2023-02-23T08:58:52.388Z,29.88
2023-02-23T09:01:25.438Z,22.92
2023-02-23T09:03:54.194Z,24.50
2023-02-23T09:06:23.083Z,27.30
2023-02-23T09:08:49.663Z,19.00
2023-02-23T09:11:16.027Z,20.67
2023-02-23T09:13:42.829Z,25.50
2023-02-23T09:16:09.572Z,25.95
2023-02-23T09:18:36.468Z,22.98
2023-02-23T09:21:06.406Z,21.58
2023-02-23T09:23:36.766Z,20.83
2023-02-23T09:26:06.748Z,16.23
2023-02-23T09:28:34.578Z,16.13
2023-02-23T09:31:17.590Z,15.25
2023-02-23T09:33:44.760Z,13.23
2023-02-23T09:36:17.360Z,14.20
2023-02-23T09:38:49.461Z,18.27
2023-02-23T09:44:23.802Z,14.27
2023-02-23T09:47:35.335Z,21.67
2023-02-23T09:50:13.865Z,14.55
2023-02-23T09:52:47.448Z,19.25
2023-02-23T09:55:16.093Z,22.83
2023-02-23T09:57:47.948Z,17.88
2023-02-23T10:00:27.740Z,50.97
2023-02-23T10:03:22.277Z,33.35
2023-02-23T10:06:01.890Z,34.72
2023-02-23T10:08:40.005Z,39.58
2023-02-23T10:11:25.201Z,12.85
2023-02-23T10:13:56.241Z,13.00
2023-02-23T10:16:46.328Z,17.40
2023-02-23T10:19:37.484Z,12.48
2023-02-23T10:22:07.524Z,13.63
2023-02-23T10:24:38.573Z,11.57
2023-02-23T10:27:23.250Z,12.15
2023-02-23T10:29:52.738Z,20.27
2023-02-23T10:32:48.236Z,11.03
2023-02-23T10:35:18.171Z,13.27
2023-02-23T10:37:48.445Z,13.38
2023-02-23T10:40:23.044Z,18.05
2023-02-23T10:42:50.679Z,15.20
2023-02-23T10:45:24.531Z,15.07
2023-02-23T10:48:01.971Z,11.00
2023-02-23T10:50:31.209Z,11.75
2023-02-23T10:53:07.013Z,12.07
2023-02-23T10:55:39.427Z,19.58
2023-02-23T10:58:17.111Z,14.70
2023-02-23T11:00:53.067Z,12.65
2023-02-23T11:03:27.678Z,13.15
2023-02-23T11:05:56.941Z,10.05
2023-02-23T11:08:41.215Z,10.45
2023-02-23T11:11:17.115Z,17.63
2023-02-23T11:13:55.912Z,11.07
2023-02-23T11:16:38.829Z,18.48
2023-02-23T11:19:22.879Z,9.68
2023-02-23T11:21:52.551Z,16.73
2023-02-23T11:24:24.961Z,14.73
2023-02-23T11:26:58.080Z,13.90
2023-02-23T11:29:35.271Z,9.65
2023-02-23T11:32:17.079Z,18.20
2023-02-23T11:34:44.331Z,11.73
2023-02-23T11:37:15.324Z,12.23
2023-02-23T11:39:55.105Z,12.52
2023-02-23T11:42:35.160Z,16.60
2023-02-23T11:45:03.407Z,15.95
2023-02-23T11:47:31.907Z,14.73
2023-02-23T11:49:59.795Z,9.98
2023-02-23T11:52:28.451Z,15.43
2023-02-23T11:55:00.405Z,12.60
2023-02-23T11:57:45.060Z,18.08
2023-02-23T12:00:21.424Z,16.20
2023-02-23T12:02:55.495Z,14.48
2023-02-23T12:05:29.154Z,13.90
2023-02-23T12:08:31.121Z,19.23
2023-02-23T12:11:02.326Z,26.13
2023-02-23T12:13:41.315Z,15.10
2023-02-23T12:16:13.144Z,11.00
2023-02-23T12:19:00.495Z,16.95
2023-02-23T12:21:29.616Z,14.40
2023-02-23T12:24:08.196Z,12.07
2023-02-23T12:26:51.179Z,8.57
2023-02-23T12:29:31.123Z,13.60
2023-02-23T12:32:13.307Z,21.42
2023-02-23T12:34:48.184Z,9.73
2023-02-23T12:37:28.351Z,11.13
2023-02-23T12:40:04.181Z,10.18
2023-02-23T12:42:40.783Z,7.57
2023-02-23T12:45:18.440Z,15.70
2023-02-23T12:47:53.639Z,9.10
2023-02-23T12:50:40.445Z,9.48
2023-02-23T12:53:20.689Z,9.63
2023-02-23T12:56:06.421Z,7.78
2023-02-23T12:58:58.711Z,7.63
2023-02-23T13:04:55.069Z,18.30
2023-02-23T13:07:37.579Z,13.75
2023-02-23T13:10:41.209Z,11.70
2023-02-23T13:13:33.708Z,20.85
2023-02-23T13:16:22.603Z,13.40
2023-02-23T13:18:55.063Z,12.30
2023-02-23T13:21:45.122Z,14.60
2023-02-23T13:24:19.120Z,14.88
2023-02-23T13:26:50.306Z,18.77
2023-02-23T13:29:43.909Z,20.33
2023-02-23T13:32:22.600Z,17.88
2023-02-23T13:34:54.586Z,16.80
2023-02-23T13:37:26.391Z,12.57
2023-02-23T13:40:19.360Z,12.85
2023-02-23T13:43:13.757Z,11.70
2023-02-23T13:46:18.097Z,13.13
2023-02-23T13:48:56.620Z,14.70
2023-02-23T13:51:33.078Z,14.40
2023-02-23T13:54:03.592Z,15.68
2023-02-23T13:56:42.607Z,18.40
2023-02-23T13:59:17.476Z,19.55
2023-02-23T14:01:48.129Z,19.48
2023-02-23T14:04:20.707Z,16.27
2023-02-23T14:06:54.082Z,18.80
2023-02-23T14:09:30.291Z,12.90
2023-02-23T14:12:06.050Z,19.48
2023-02-23T14:14:33.175Z,11.95
2023-02-23T14:17:39.487Z,12.30
2023-02-23T14:20:17.817Z,16.38
2023-02-23T14:23:22.103Z,18.67
2023-02-23T14:26:13.371Z,17.95
2023-02-23T14:28:42.535Z,14.30
2023-02-23T14:31:20.406Z,12.20
2023-02-23T14:33:48.714Z,11.10
2023-02-23T14:36:21.338Z,21.10
2023-02-23T14:38:57.025Z,11.85
2023-02-23T14:41:35.822Z,10.98
2023-02-23T14:44:28.393Z,17.65
2023-02-23T14:47:13.062Z,15.27
2023-02-23T14:49:47.392Z,16.05
2023-02-23T14:52:45.623Z,20.23
2023-02-23T14:55:11.962Z,17.45
2023-02-23T14:57:43.671Z,18.45
2023-02-23T15:00:24.331Z,16.23
2023-02-23T15:02:54.437Z,14.35
2023-02-23T15:05:25.718Z,14.95
2023-02-23T15:07:57.910Z,12.47
2023-02-23T15:13:23.175Z,18.02
2023-02-23T15:15:52.066Z,29.95
2023-02-23T15:19:05.828Z,19.65
2023-02-23T15:21:35.910Z,19.70
2023-02-23T15:24:11.449Z,15.38
2023-02-23T15:26:40.199Z,18.65
2023-02-23T15:29:19.108Z,16.83
2023-02-23T15:31:52.468Z,12.25
2023-02-23T15:34:23.660Z,25.13
2023-02-23T15:37:20.032Z,17.88
2023-02-23T15:39:53.320Z,14.73
2023-02-23T15:42:25.106Z,21.52
2023-02-23T15:45:13.529Z,9.32
2023-02-23T15:47:48.651Z,15.63
2023-02-23T15:50:24.783Z,17.20
2023-02-23T15:53:01.591Z,18.80
2023-02-23T15:55:35.423Z,15.23
2023-02-23T15:58:15.868Z,19.17
2023-02-23T16:00:44.829Z,15.45
2023-02-23T16:03:35.645Z,11.65
2023-02-23T16:06:07.208Z,12.80
2023-02-23T16:08:36.729Z,16.60
2023-02-23T16:11:14.026Z,11.40
2023-02-23T16:13:49.966Z,10.35
2023-02-23T16:16:25.540Z,14.32
2023-02-23T16:18:55.238Z,14.05
2023-02-23T16:21:25.279Z,11.75
2023-02-23T16:23:54.737Z,22.65
2023-02-23T16:26:40.963Z,18.67
2023-02-23T16:29:18.600Z,10.55
2023-02-23T16:31:48.459Z,12.48
2023-02-23T16:34:44.975Z,11.68
2023-02-23T16:37:20.137Z,12.23
2023-02-23T16:39:48.200Z,12.10
2023-02-23T16:42:30.878Z,15.50
2023-02-23T16:45:00.844Z,22.15
2023-02-23T16:47:44.140Z,11.68
2023-02-23T16:50:24.563Z,14.68
2023-02-23T16:52:57.038Z,20.17
2023-02-23T16:55:29.623Z,16.95
2023-02-23T16:58:02.283Z,12.88
2023-02-23T17:00:31.666Z,12.88
2023-02-23T17:03:00.645Z,7.78
2023-02-23T17:05:29.010Z,13.63
2023-02-23T17:07:59.075Z,9.73
2023-02-23T17:10:31.463Z,7.93
2023-02-23T17:13:05.037Z,16.20
2023-02-23T17:15:42.496Z,9.07
2023-02-23T17:18:12.767Z,14.60
2023-02-23T17:20:45.466Z,7.10
2023-02-23T17:23:14.541Z,11.32
2023-02-23T17:25:47.207Z,8.55
2023-02-23T17:28:17.797Z,6.78
2023-02-23T17:30:44.816Z,7.82
2023-02-23T17:33:12.242Z,9.95
2023-02-23T17:35:39.168Z,13.55
2023-02-23T17:38:11.080Z,12.00
2023-02-23T17:40:39.855Z,10.93
2023-02-23T17:43:15.732Z,12.00
2023-02-23T17:45:42.175Z,15.52
2023-02-23T17:48:11.240Z,11.40
2023-02-23T17:50:37.961Z,19.63
2023-02-23T17:53:04.506Z,8.02
2023-02-23T17:55:33.882Z,8.98
2023-02-23T17:58:00.344Z,15.82
2023-02-23T18:00:28.624Z,14.13
2023-02-23T18:02:55.157Z,29.17
2023-02-23T18:05:21.623Z,21.73
2023-02-23T18:07:50.673Z,17.02
2023-02-23T18:10:19.948Z,15.43
2023-02-23T18:12:48.973Z,16.17
2023-02-23T18:15:17.401Z,12.60
2023-02-23T18:17:44.812Z,9.55
2023-02-23T18:20:16.313Z,12.55
2023-02-23T18:22:45.713Z,16.20
2023-02-23T18:25:31.804Z,9.10
2023-02-23T18:28:03.240Z,10.55
2023-02-23T18:30:29.796Z,12.63
2023-02-23T18:32:58.127Z,9.80
2023-02-23T18:35:26.996Z,11.25
2023-02-23T18:37:53.557Z,11.38
2023-02-23T18:40:23.766Z,14.05
2023-02-23T18:42:50.431Z,22.05
2023-02-23T18:45:19.154Z,10.93
2023-02-23T18:47:45.567Z,13.73
2023-02-23T18:50:12.750Z,12.38
2023-02-23T18:52:40.663Z,12.15
2023-02-23T18:55:10.907Z,7.85
2023-02-23T18:57:43.855Z,12.95
2023-02-23T19:00:15.783Z,16.45
2023-02-23T19:02:49.350Z,18.65
2023-02-23T19:05:22.107Z,13.00
2023-02-23T19:08:01.752Z,17.20
2023-02-23T19:13:23.276Z,9.93
2023-02-23T19:15:50.189Z,9.38
2023-02-23T19:18:27.578Z,9.00
2023-02-23T19:21:04.084Z,12.38
2023-02-23T19:23:30.790Z,9.05
2023-02-23T19:26:14.140Z,7.80
2023-02-23T19:28:48.394Z,12.23
2023-02-23T19:31:23.184Z,11.13
2023-02-23T19:34:17.530Z,9.25
2023-02-23T19:36:51.201Z,7.07
2023-02-23T19:39:33.098Z,8.57
2023-02-23T19:42:00.249Z,11.52
2023-02-23T19:44:33.114Z,16.25
2023-02-23T19:47:10.077Z,10.50
2023-02-23T19:49:39.596Z,15.88
2023-02-23T19:52:14.953Z,12.82
2023-02-23T19:54:41.601Z,9.73
2023-02-23T19:57:11.361Z,22.27
2023-02-23T20:00:01.358Z,10.10
2023-02-23T20:02:42.496Z,14.45
2023-02-23T20:05:18.927Z,12.07
2023-02-23T20:07:55.791Z,13.95
2023-02-23T20:10:30.905Z,15.27
2023-02-23T20:12:57.686Z,14.48
2023-02-23T20:15:26.601Z,13.43
2023-02-23T20:17:57.530Z,15.50
2023-02-23T20:20:55.343Z,19.40
2023-02-23T20:23:26.826Z,17.63
2023-02-23T20:25:55.138Z,22.98
2023-02-23T20:28:31.201Z,18.80
2023-02-23T20:31:03.459Z,20.08
2023-02-23T20:36:13.220Z,14.65
2023-02-23T20:38:42.482Z,21.98
2023-02-23T20:41:12.013Z,18.20
2023-02-23T20:43:44.347Z,20.40
2023-02-23T20:46:16.478Z,16.92
2023-02-23T20:51:54.608Z,21.38
2023-02-23T20:54:45.950Z,15.73
2023-02-23T20:57:21.022Z,18.55
2023-02-23T20:59:48.015Z,19.25
2023-02-23T21:02:23.042Z,18.15
2023-02-23T21:04:49.686Z,15.80
2023-02-23T21:07:30.510Z,19.50
2023-02-23T21:10:00.403Z,28.85
2023-02-23T21:12:31.975Z,25.17
2023-02-23T21:15:01.874Z,22.70
2023-02-23T21:17:28.444Z,21.23
2023-02-23T21:20:09.814Z,26.80
2023-02-23T21:22:51.238Z,26.90
2023-02-23T21:25:32.778Z,20.35
2023-02-23T21:28:04.438Z,17.63
2023-02-23T21:30:30.972Z,21.02
2023-02-23T21:33:01.071Z,29.90
2023-02-23T21:35:27.749Z,22.30
2023-02-23T21:37:57.347Z,24.05
2023-02-23T21:40:33.990Z,29.48
2023-02-23T21:43:11.342Z,22.48
2023-02-23T21:45:49.236Z,19.10
2023-02-23T21:48:21.011Z,27.02
2023-02-23T21:51:05.244Z,30.60
2023-02-23T21:53:38.240Z,32.95
2023-02-23T21:56:14.498Z,30.52
2023-02-23T21:59:05.016Z,22.52
2023-02-23T22:01:43.028Z,19.50
2023-02-23T22:04:18.897Z,26.48
2023-02-23T22:07:02.464Z,28.88
2023-02-23T22:09:29.157Z,25.98
2023-02-23T22:11:58.325Z,23.50
2023-02-23T22:14:27.090Z,27.20
2023-02-23T22:16:57.721Z,27.50
2023-02-23T22:19:32.900Z,25.80
2023-02-23T22:22:23.260Z,26.13
2023-02-23T22:24:56.197Z,21.38
2023-02-23T22:27:25.055Z,24.95
2023-02-23T22:29:51.799Z,22.55
2023-02-23T22:32:21.495Z,27.13
2023-02-23T22:34:48.232Z,27.35
2023-02-23T22:37:17.456Z,27.95
2023-02-23T22:40:17.125Z,24.15
2023-02-23T22:42:49.969Z,24.02
2023-02-23T22:45:23.793Z,24.15
2023-02-23T22:47:53.146Z,23.23
2023-02-23T22:50:21.920Z,20.65
2023-02-23T22:52:59.093Z,21.70
2023-02-23T22:55:35.727Z,21.23
2023-02-23T22:58:23.424Z,24.27
2023-02-23T23:01:10.297Z,22.75
2023-02-23T23:03:47.375Z,26.88
2023-02-23T23:06:35.968Z,24.75
2023-02-23T23:09:07.554Z,23.42
2023-02-23T23:11:45.000Z,24.83
2023-02-23T23:14:23.811Z,26.42
2023-02-23T23:16:53.180Z,24.60
2023-02-23T23:19:24.193Z,26.20
2023-02-23T23:22:04.403Z,36.92
2023-02-23T23:24:37.021Z,22.63
2023-02-23T23:27:27.377Z,34.10
2023-02-23T23:30:08.386Z,24.40
2023-02-23T23:32:46.884Z,26.27
2023-02-23T23:35:17.427Z,26.17
2023-02-23T23:37:46.713Z,23.48
2023-02-23T23:40:16.917Z,24.92
2023-02-23T23:42:51.832Z,26.73
2023-02-23T23:45:26.546Z,23.80
2023-02-23T23:47:55.907Z,26.42
2023-02-23T23:50:33.745Z,23.13
2023-02-23T23:53:22.011Z,24.05
2023-02-23T23:56:15.645Z,23.88
2023-02-23T23:58:54.449Z,27.38
